Terminal Aerodrome Forecast
Issued by NWS Dallas/Fort Worth, TX

Home | Current Version | Previous Version | Text Only | Print | Product List | Glossary On
Versions: 1 2 3 4 5 6 7 8 9 10 11 12 13 14 15 16 17 18 19 20 21 22 23 24 25 26 27 28 29
000
FTUS44 KFWD 171100 CCA
TAFACT
TAF COR
KACT 171145Z 1712/1812 18006KT P6SM BKN007
     FM171500 18007KT P6SM BKN015
     FM171600 17005KT P6SM VCSH SCT040 BKN250
     FM172200 16006KT 4SM -TSRA BR BKN040CB
     FM180300 15006KT 5SM -SHRA BR SCT025 OVC050
     FM181000 17006KT 3SM BR OVC010=

USA.gov is the U.S. government's official web portal to all federal, state and local government web resources and services.